Time;durP1;ratioP1;P1;durP2;ratioP2;P2;SDS_P1;SDS_P2;PMS_P1;PMS_P2;Temp;Humidity;BMP_temperature;BMP_pressure;BME280_temperature;BME280_humidity;BME280_pressure;Samples;Min_cycle;Max_cycle;Signal;HPM_P1;HPM_P2
2023/12/12 00:02:18;;;;;;;;;;;29.00;98.50;;;;;;4999832;28;19912;-75
2023/12/12 00:04:45;;;;;;;;;;;29.00;98.00;;;;;;5065515;28;19927;-73
2023/12/12 00:07:12;;;;;;;;;;;29.10;98.30;;;;;;4972905;28;19918;-73
2023/12/12 00:09:38;;;;;;;;;;;29.10;98.20;;;;;;4973216;28;20271;-72
2023/12/12 00:12:05;;;;;;;;;;;29.00;98.50;;;;;;4972392;28;20279;-72
2023/12/12 00:14:32;;;;;;;;;;;29.10;98.20;;;;;;4973528;28;19910;-72
2023/12/12 00:16:58;;;;;;;;;;;29.20;98.40;;;;;;4972705;28;19921;-74
2023/12/12 00:19:25;;;;;;;;;;;29.30;98.40;;;;;;4973098;28;20294;-73
2023/12/12 00:21:52;;;;;;;;;;;29.40;98.20;;;;;;5010501;28;19935;-73
2023/12/12 00:24:19;;;;;;;;;;;29.40;97.90;;;;;;5068685;28;20019;-74
2023/12/12 00:26:45;;;;;;;;;;;29.50;98.10;;;;;;5070462;28;19916;-70
2023/12/12 00:29:12;;;;;;;;;;;29.60;97.90;;;;;;5074147;28;19977;-72
2023/12/12 00:31:39;;;;;;;;;;;29.50;97.90;;;;;;5028759;28;19918;-72
2023/12/12 00:34:05;;;;;;;;;;;29.50;98.30;;;;;;4971643;28;19993;-71
2023/12/12 00:36:32;;;;;;;;;;;29.50;97.80;;;;;;4970546;28;19954;-74
2023/12/12 00:38:58;;;;;;;;;;;29.50;97.80;;;;;;4996237;28;20003;-72
2023/12/12 00:41:32;;;;;;;;;;;29.60;97.80;;;;;;5035014;28;19917;-72
2023/12/12 00:43:59;;;;;;;;;;;29.80;97.80;;;;;;4968601;28;19925;-75
2023/12/12 00:46:25;;;;;;;;;;;30.00;97.40;;;;;;4969390;28;19917;-72
2023/12/12 00:48:52;;;;;;;;;;;30.00;97.30;;;;;;5018172;28;19919;-71
2023/12/12 00:51:19;;;;;;;;;;;30.20;97.20;;;;;;5014505;28;19918;-71
2023/12/12 00:53:45;;;;;;;;;;;30.20;96.80;;;;;;4969151;28;19914;-72
2023/12/12 00:56:12;;;;;;;;;;;30.30;96.50;;;;;;4981396;28;19968;-73
2023/12/12 00:58:39;;;;;;;;;;;30.40;96.30;;;;;;4991481;28;19958;-72
2023/12/12 01:01:05;;;;;;;;;;;30.50;95.90;;;;;;4974621;28;20001;-73
2023/12/12 01:03:32;;;;;;;;;;;30.70;95.20;;;;;;4971332;28;19987;-73
2023/12/12 01:06:02;;;;;;;;;;;30.70;95.30;;;;;;4971885;28;19933;-73
2023/12/12 01:08:29;;;;;;;;;;;30.70;95.50;;;;;;4960836;28;19941;-75
2023/12/12 01:10:55;;;;;;;;;;;30.80;95.80;;;;;;4959652;28;19945;-72
2023/12/12 01:13:22;;;;;;;;;;;30.80;95.80;;;;;;4965286;28;19936;-71
2023/12/12 01:15:48;;;;;;;;;;;31.00;96.40;;;;;;4963099;28;19921;-72
2023/12/12 01:18:15;;;;;;;;;;;31.00;96.50;;;;;;4957052;28;19945;-71
2023/12/12 01:20:42;;;;;;;;;;;31.00;95.70;;;;;;4966832;28;20374;-70
2023/12/12 01:23:08;;;;;;;;;;;30.70;96.40;;;;;;4971182;28;19926;-71
2023/12/12 01:25:35;;;;;;;;;;;30.80;96.00;;;;;;4968872;28;19922;-73
2023/12/12 01:28:01;;;;;;;;;;;31.00;94.50;;;;;;4957707;28;19914;-72
2023/12/12 01:30:29;;;;;;;;;;;31.00;95.00;;;;;;4963836;28;19918;-72
2023/12/12 01:32:56;;;;;;;;;;;31.00;95.40;;;;;;4964030;28;19960;-73
2023/12/12 01:35:22;;;;;;;;;;;31.10;95.20;;;;;;4962057;28;20248;-74
2023/12/12 01:37:49;;;;;;;;;;;31.20;95.30;;;;;;4957337;28;19910;-71
2023/12/12 01:40:15;;;;;;;;;;;31.00;94.20;;;;;;4960015;28;19922;-72
2023/12/12 01:42:42;;;;;;;;;;;30.80;94.90;;;;;;4961858;28;19921;-72
2023/12/12 01:45:09;;;;;;;;;;;30.70;94.50;;;;;;4965208;28;19978;-71
2023/12/12 01:47:35;;;;;;;;;;;30.90;95.10;;;;;;4970731;28;20295;-71
2023/12/12 01:50:02;;;;;;;;;;;31.10;95.40;;;;;;4971494;28;20367;-72
2023/12/12 01:52:29;;;;;;;;;;;31.20;94.10;;;;;;4966323;28;19914;-73
2023/12/12 01:54:56;;;;;;;;;;;31.50;95.20;;;;;;4958291;28;19922;-72
2023/12/12 01:57:23;;;;;;;;;;;31.70;94.00;;;;;;4961918;28;19914;-72
2023/12/12 01:59:50;;;;;;;;;;;31.80;93.60;;;;;;4970453;28;19921;-73
2023/12/12 02:02:19;;;;;;;;;;;31.80;94.40;;;;;;4957422;28;19953;-74
2023/12/12 02:04:47;;;;;;;;;;;31.90;94.20;;;;;;4963883;28;19967;-73
2023/12/12 02:07:14;;;;;;;;;;;31.60;93.60;;;;;;4968180;28;20260;-71
2023/12/12 02:09:42;;;;;;;;;;;31.80;94.20;;;;;;4954873;28;19915;-72
2023/12/12 02:12:08;;;;;;;;;;;31.70;94.00;;;;;;4964158;28;19918;-73
2023/12/12 02:14:37;;;;;;;;;;;31.70;93.80;;;;;;4968291;28;19937;-74
2023/12/12 02:17:04;;;;;;;;;;;31.70;94.30;;;;;;4967247;28;19922;-75
2023/12/12 02:19:32;;;;;;;;;;;31.60;93.90;;;;;;4968119;28;19995;-77
2023/12/12 02:21:59;;;;;;;;;;;31.70;93.50;;;;;;4969322;28;19933;-74
2023/12/12 02:24:26;;;;;;;;;;;31.50;93.20;;;;;;4966530;28;20539;-72
2023/12/12 02:26:52;;;;;;;;;;;31.70;92.90;;;;;;4969608;28;19989;-76
2023/12/12 02:29:19;;;;;;;;;;;31.70;94.00;;;;;;4969443;28;19917;-73
2023/12/12 02:31:46;;;;;;;;;;;32.00;93.30;;;;;;4969457;28;19922;-73
2023/12/12 02:34:12;;;;;;;;;;;32.30;93.20;;;;;;4969248;28;19910;-73
2023/12/12 02:36:39;;;;;;;;;;;32.60;92.80;;;;;;4969404;28;19922;-73
2023/12/12 02:39:06;;;;;;;;;;;32.60;92.20;;;;;;4970978;28;19914;-73
2023/12/12 02:41:33;;;;;;;;;;;32.40;92.50;;;;;;4998768;28;19947;-71
2023/12/12 02:43:59;;;;;;;;;;;32.10;92.60;;;;;;5068526;28;20463;-74
2023/12/12 02:46:26;;;;;;;;;;;31.90;92.80;;;;;;4965468;28;19972;-72
2023/12/12 02:48:53;;;;;;;;;;;32.10;92.30;;;;;;4950107;28;19972;-73
2023/12/12 02:51:19;;;;;;;;;;;32.30;93.20;;;;;;4956771;28;19917;-72
2023/12/12 02:53:46;;;;;;;;;;;32.70;92.30;;;;;;4970891;28;20259;-74
2023/12/12 02:56:12;;;;;;;;;;;33.00;92.10;;;;;;4964913;28;19910;-71
2023/12/12 02:58:39;;;;;;;;;;;33.20;91.50;;;;;;4968263;28;19914;-73
2023/12/12 03:01:06;;;;;;;;;;;33.70;91.80;;;;;;4964288;28;19964;-76
2023/12/12 03:03:32;;;;;;;;;;;34.00;90.40;;;;;;4967420;28;19969;-74
2023/12/12 03:05:59;;;;;;;;;;;34.20;90.20;;;;;;4968832;28;19910;-72
2023/12/12 03:08:26;;;;;;;;;;;34.70;90.20;;;;;;4968607;28;19918;-72
2023/12/12 03:10:52;;;;;;;;;;;35.50;87.50;;;;;;4969395;28;19914;-70
2023/12/12 03:13:19;;;;;;;;;;;35.90;86.90;;;;;;4958290;28;19919;-75
2023/12/12 03:15:45;;;;;;;;;;;36.00;86.10;;;;;;4950868;28;20405;-74
2023/12/12 03:18:12;;;;;;;;;;;36.60;84.90;;;;;;4951989;28;19917;-72
2023/12/12 03:20:39;;;;;;;;;;;36.70;84.00;;;;;;4950572;28;19915;-73
2023/12/12 03:23:05;;;;;;;;;;;36.40;82.90;;;;;;4969467;28;19921;-71
2023/12/12 03:25:32;;;;;;;;;;;36.30;83.90;;;;;;4969436;28;19910;-72
2023/12/12 03:27:59;;;;;;;;;;;36.70;82.90;;;;;;4960636;28;20017;-71
2023/12/12 03:30:25;;;;;;;;;;;38.00;80.40;;;;;;4950615;28;19921;-71
2023/12/12 03:32:52;;;;;;;;;;;39.10;79.20;;;;;;4968248;28;19910;-72
2023/12/12 03:35:18;;;;;;;;;;;40.20;74.80;;;;;;4969649;28;19914;-72
2023/12/12 03:37:45;;;;;;;;;;;39.90;75.30;;;;;;4957994;28;19926;-71
2023/12/12 03:40:12;;;;;;;;;;;40.00;73.40;;;;;;4966235;28;19914;-72
2023/12/12 03:42:38;;;;;;;;;;;40.30;72.40;;;;;;4964248;28;20035;-72
2023/12/12 03:45:06;;;;;;;;;;;40.80;72.00;;;;;;4969449;28;20004;-72
2023/12/12 03:47:32;;;;;;;;;;;41.60;70.00;;;;;;4969553;28;19910;-71
2023/12/12 03:49:59;;;;;;;;;;;41.50;69.40;;;;;;4969407;28;19914;-71
2023/12/12 03:52:26;;;;;;;;;;;41.50;68.80;;;;;;4962237;28;19918;-72
2023/12/12 03:54:52;;;;;;;;;;;40.80;69.30;;;;;;4968805;28;19910;-72
2023/12/12 03:57:19;;;;;;;;;;;40.40;70.50;;;;;;4978717;28;19914;-73
2023/12/12 03:59:46;;;;;;;;;;;39.80;69.20;;;;;;4976344;28;19914;-72
2023/12/12 04:02:12;;;;;;;;;;;39.10;70.90;;;;;;4977664;28;19914;-73
2023/12/12 04:04:39;;;;;;;;;;;38.50;71.20;;;;;;4972127;28;20017;-75
2023/12/12 04:07:05;;;;;;;;;;;37.90;71.70;;;;;;4971006;28;20343;-72
2023/12/12 04:09:32;;;;;;;;;;;37.50;73.80;;;;;;4972469;28;19910;-72
2023/12/12 04:11:59;;;;;;;;;;;37.40;73.10;;;;;;4971228;28;19914;-72
2023/12/12 04:14:25;;;;;;;;;;;36.70;74.20;;;;;;4972207;28;19916;-73
2023/12/12 04:16:52;;;;;;;;;;;36.20;75.20;;;;;;4971525;28;19920;-72
2023/12/12 04:19:19;;;;;;;;;;;36.20;74.80;;;;;;4972329;28;19917;-73
2023/12/12 04:21:45;;;;;;;;;;;35.60;76.30;;;;;;4972028;28;19962;-74
2023/12/12 04:24:12;;;;;;;;;;;35.10;77.70;;;;;;4971889;28;20005;-72
2023/12/12 04:26:39;;;;;;;;;;;34.80;77.80;;;;;;4995911;28;20363;-74
2023/12/12 04:29:05;;;;;;;;;;;34.40;78.90;;;;;;4984668;28;19914;-73
2023/12/12 04:31:32;;;;;;;;;;;33.50;81.00;;;;;;4971730;28;19917;-72
2023/12/12 04:33:58;;;;;;;;;;;33.50;83.60;;;;;;4971589;28;20504;-75
2023/12/12 04:36:25;;;;;;;;;;;34.00;81.00;;;;;;4973032;28;19911;-74
2023/12/12 04:38:52;;;;;;;;;;;34.30;80.00;;;;;;5051817;28;19915;-75
2023/12/12 04:41:18;;;;;;;;;;;34.90;80.00;;;;;;5044547;28;19914;-74
2023/12/12 04:43:45;;;;;;;;;;;34.70;80.10;;;;;;4971960;28;19926;-74
2023/12/12 04:46:19;;;;;;;;;;;34.30;81.90;;;;;;4970150;28;19946;-73
2023/12/12 04:48:46;;;;;;;;;;;33.70;81.90;;;;;;4971009;28;20290;-73
2023/12/12 04:51:13;;;;;;;;;;;33.30;83.50;;;;;;4961486;28;19910;-74
2023/12/12 04:53:39;;;;;;;;;;;32.40;85.10;;;;;;4971513;28;20375;-74
2023/12/12 04:56:06;;;;;;;;;;;31.90;88.40;;;;;;4968348;28;19915;-75
2023/12/12 04:58:33;;;;;;;;;;;32.70;88.00;;;;;;4991111;28;19919;-78
2023/12/12 05:00:59;;;;;;;;;;;33.40;87.50;;;;;;5057087;28;20378;-76
2023/12/12 05:03:26;;;;;;;;;;;33.20;87.00;;;;;;4971361;28;19929;-75
2023/12/12 05:05:54;;;;;;;;;;;33.40;86.50;;;;;;4971758;28;19933;-74
2023/12/12 05:08:21;;;;;;;;;;;34.20;85.50;;;;;;4971318;28;20362;-74
2023/12/12 05:10:47;;;;;;;;;;;34.50;84.40;;;;;;4964245;28;19915;-74
2023/12/12 05:13:14;;;;;;;;;;;33.80;85.70;;;;;;4965463;28;19918;-71
2023/12/12 05:15:41;;;;;;;;;;;32.90;85.30;;;;;;4965421;28;19921;-71
2023/12/12 05:18:07;;;;;;;;;;;32.70;87.30;;;;;;4971010;28;19910;-71
2023/12/12 05:20:34;;;;;;;;;;;32.70;86.70;;;;;;4970446;28;19976;-75
2023/12/12 05:23:00;;;;;;;;;;;32.60;88.70;;;;;;4971563;28;19988;-73
2023/12/12 05:25:27;;;;;;;;;;;33.00;89.00;;;;;;4968683;28;20448;-74
2023/12/12 05:27:54;;;;;;;;;;;33.10;89.30;;;;;;4957671;28;19910;-74
2023/12/12 05:30:21;;;;;;;;;;;33.20;89.20;;;;;;4966494;28;19926;-76
2023/12/12 05:32:47;;;;;;;;;;;34.00;86.70;;;;;;4968351;28;20330;-75
2023/12/12 05:35:14;;;;;;;;;;;34.40;86.40;;;;;;4970007;28;20275;-73
2023/12/12 05:37:40;;;;;;;;;;;35.20;84.20;;;;;;4959537;28;20387;-74
2023/12/12 05:40:07;;;;;;;;;;;36.00;81.40;;;;;;4970174;28;19945;-76
2023/12/12 05:42:34;;;;;;;;;;;36.60;79.70;;;;;;4968179;28;19967;-74
2023/12/12 05:45:02;;;;;;;;;;;36.80;79.50;;;;;;4952083;28;19922;-74
2023/12/12 05:47:28;;;;;;;;;;;36.40;79.50;;;;;;4962941;28;19922;-74
2023/12/12 05:49:55;;;;;;;;;;;36.30;79.30;;;;;;4985075;28;19953;-75
2023/12/12 05:52:22;;;;;;;;;;;35.90;79.60;;;;;;4969751;28;19921;-74
2023/12/12 05:54:49;;;;;;;;;;;35.30;81.40;;;;;;4970501;28;19921;-74
2023/12/12 05:57:15;;;;;;;;;;;35.10;83.50;;;;;;4964576;28;19950;-75
2023/12/12 05:59:42;;;;;;;;;;;34.70;83.90;;;;;;4971641;28;20021;-75
2023/12/12 06:02:09;;;;;;;;;;;33.90;85.60;;;;;;4963697;28;19918;-73
2023/12/12 06:04:38;;;;;;;;;;;33.00;87.10;;;;;;4960793;28;19923;-75
2023/12/12 06:07:05;;;;;;;;;;;32.50;87.60;;;;;;4964541;28;19918;-74
2023/12/12 06:09:32;;;;;;;;;;;32.60;89.20;;;;;;4958572;28;19914;-74
2023/12/12 06:12:01;;;;;;;;;;;32.80;88.40;;;;;;4962840;28;20401;-75
2023/12/12 06:14:28;;;;;;;;;;;32.60;88.20;;;;;;4974586;28;19925;-74
2023/12/12 06:16:54;;;;;;;;;;;32.50;89.60;;;;;;4964884;28;19910;-74
2023/12/12 06:19:22;;;;;;;;;;;32.60;89.20;;;;;;4966690;28;20308;-75
2023/12/12 06:21:52;;;;;;;;;;;32.80;90.00;;;;;;4960964;28;20415;-74
2023/12/12 06:24:18;;;;;;;;;;;32.80;89.90;;;;;;4965808;28;19980;-74
2023/12/12 06:26:45;;;;;;;;;;;33.00;89.90;;;;;;4959191;28;20452;-73
2023/12/12 06:29:13;;;;;;;;;;;32.70;89.60;;;;;;4961626;28;19968;-73
2023/12/12 06:31:40;;;;;;;;;;;32.10;90.40;;;;;;4963305;28;19910;-72
2023/12/12 06:34:10;;;;;;;;;;;31.70;91.30;;;;;;4970056;28;19958;-76
2023/12/12 06:36:37;;;;;;;;;;;31.40;92.30;;;;;;4975964;28;19937;-74
2023/12/12 06:39:04;;;;;;;;;;;31.60;92.00;;;;;;4968935;28;19918;-74
2023/12/12 06:41:31;;;;;;;;;;;31.70;91.70;;;;;;4968546;28;19918;-72
2023/12/12 06:43:58;;;;;;;;;;;31.50;91.20;;;;;;4953326;28;19991;-76
2023/12/12 06:46:25;;;;;;;;;;;31.10;91.60;;;;;;4950376;28;19917;-75
2023/12/12 06:48:52;;;;;;;;;;;31.00;92.50;;;;;;4965832;28;19910;-72
2023/12/12 06:51:19;;;;;;;;;;;31.00;92.90;;;;;;4953435;28;19918;-78
2023/12/12 06:53:45;;;;;;;;;;;30.50;93.40;;;;;;4955607;28;19975;-73
2023/12/12 06:56:12;;;;;;;;;;;30.10;94.30;;;;;;4954187;28;19965;-73
2023/12/12 06:58:39;;;;;;;;;;;29.60;94.80;;;;;;4973894;28;20074;-74
2023/12/12 07:01:06;;;;;;;;;;;29.30;95.70;;;;;;4972288;28;19937;-73
2023/12/12 07:03:32;;;;;;;;;;;29.00;96.10;;;;;;4964571;28;19918;-74
2023/12/12 07:05:59;;;;;;;;;;;29.30;95.60;;;;;;4970617;28;19918;-74
2023/12/12 07:08:26;;;;;;;;;;;29.20;95.50;;;;;;4964115;28;19983;-73
2023/12/12 07:10:52;;;;;;;;;;;29.00;96.00;;;;;;4950937;28;19963;-73
2023/12/12 07:13:19;;;;;;;;;;;29.20;96.10;;;;;;4949748;28;19925;-72
2023/12/12 07:15:45;;;;;;;;;;;29.20;96.40;;;;;;4950581;28;19921;-72
2023/12/12 07:18:14;;;;;;;;;;;29.50;96.10;;;;;;4955774;28;19922;-74
2023/12/12 07:20:44;;;;;;;;;;;29.00;95.90;;;;;;4969208;28;19914;-74
2023/12/12 07:23:10;;;;;;;;;;;28.80;96.40;;;;;;4969704;28;19914;-71
2023/12/12 07:25:38;;;;;;;;;;;28.40;97.40;;;;;;4970010;28;20283;-76
2023/12/12 07:28:05;;;;;;;;;;;28.20;98.00;;;;;;4965646;28;20009;-74
2023/12/12 07:30:32;;;;;;;;;;;28.20;98.20;;;;;;4951068;28;20338;-72
2023/12/12 07:32:58;;;;;;;;;;;28.10;98.80;;;;;;4952200;28;19914;-74
2023/12/12 07:35:25;;;;;;;;;;;27.90;99.40;;;;;;4954811;28;19957;-72
2023/12/12 07:37:52;;;;;;;;;;;28.00;99.10;;;;;;4954812;28;20372;-73
2023/12/12 07:40:18;;;;;;;;;;;28.00;99.20;;;;;;4954776;29;20403;-73
2023/12/12 07:42:48;;;;;;;;;;;28.00;99.50;;;;;;4954665;28;19915;-73
2023/12/12 07:45:14;;;;;;;;;;;27.80;99.90;;;;;;4954613;28;19918;-75
2023/12/12 07:47:41;;;;;;;;;;;27.60;99.90;;;;;;4954517;28;19915;-76
2023/12/12 07:50:08;;;;;;;;;;;27.60;99.90;;;;;;4954316;28;20352;-75
2023/12/12 07:52:35;;;;;;;;;;;27.60;99.90;;;;;;4955978;28;20004;-73
2023/12/12 07:55:01;;;;;;;;;;;27.50;99.90;;;;;;4972640;28;19910;-71
2023/12/12 07:57:28;;;;;;;;;;;27.40;99.90;;;;;;4969187;28;19957;-75
2023/12/12 07:59:54;;;;;;;;;;;27.40;99.90;;;;;;4973004;28;19953;-73
2023/12/12 08:02:21;;;;;;;;;;;27.40;99.90;;;;;;4974154;28;19917;-73
2023/12/12 08:04:48;;;;;;;;;;;27.20;99.90;;;;;;4974264;28;20282;-77
2023/12/12 08:07:14;;;;;;;;;;;27.00;99.90;;;;;;4973303;28;19910;-74
2023/12/12 08:09:41;;;;;;;;;;;26.90;99.90;;;;;;4972405;28;20251;-77
2023/12/12 08:12:08;;;;;;;;;;;26.90;99.90;;;;;;4972735;28;19917;-76
2023/12/12 08:14:34;;;;;;;;;;;26.90;99.90;;;;;;4973015;28;19926;-76
2023/12/12 08:17:01;;;;;;;;;;;26.90;99.90;;;;;;4963698;28;20393;-75
2023/12/12 08:19:27;;;;;;;;;;;26.80;99.90;;;;;;4961620;28;19922;-75
2023/12/12 08:21:54;;;;;;;;;;;26.80;99.90;;;;;;4953371;28;19922;-77
2023/12/12 08:24:21;;;;;;;;;;;26.70;99.90;;;;;;4961322;28;19930;-75
2023/12/12 08:26:47;;;;;;;;;;;26.70;99.90;;;;;;4971411;28;19914;-72
2023/12/12 08:29:14;;;;;;;;;;;26.50;99.90;;;;;;4954407;28;19925;-78
2023/12/12 08:31:41;;;;;;;;;;;26.20;99.90;;;;;;4964500;28;19919;-75
2023/12/12 08:34:08;;;;;;;;;;;26.20;99.90;;;;;;4972790;28;20366;-74
2023/12/12 08:36:35;;;;;;;;;;;26.10;99.90;;;;;;4970216;28;19915;-74
2023/12/12 08:39:02;;;;;;;;;;;25.90;99.90;;;;;;4955632;28;20429;-74
2023/12/12 08:41:30;;;;;;;;;;;25.70;99.90;;;;;;4962875;28;19929;-75
2023/12/12 08:44:00;;;;;;;;;;;25.60;99.90;;;;;;4972161;28;19957;-74
2023/12/12 08:46:27;;;;;;;;;;;25.60;99.90;;;;;;4971042;28;20312;-79
2023/12/12 08:48:54;;;;;;;;;;;25.70;99.90;;;;;;4958136;28;19921;-75
2023/12/12 08:51:21;;;;;;;;;;;25.70;99.90;;;;;;4961919;28;19918;-78
2023/12/12 08:53:49;;;;;;;;;;;25.70;99.90;;;;;;4972494;28;20263;-77
2023/12/12 08:56:16;;;;;;;;;;;25.70;99.90;;;;;;4972781;28;19937;-75
2023/12/12 08:58:47;;;;;;;;;;;25.60;99.90;;;;;;4958216;28;20371;-77
2023/12/12 09:01:15;;;;;;;;;;;25.60;99.90;;;;;;4959919;28;20298;-75
2023/12/12 09:03:41;;;;;;;;;;;25.60;99.90;;;;;;4972455;28;19976;-77
2023/12/12 09:06:08;;;;;;;;;;;25.50;99.90;;;;;;4972138;28;20419;-74
2023/12/12 09:08:35;;;;;;;;;;;25.40;99.90;;;;;;4959261;28;19976;-77
2023/12/12 09:11:02;;;;;;;;;;;25.30;99.90;;;;;;4957940;28;19914;-78
2023/12/12 09:13:29;;;;;;;;;;;25.40;99.90;;;;;;4972230;28;19918;-76
2023/12/12 09:15:56;;;;;;;;;;;25.40;99.90;;;;;;4964804;28;19921;-77
2023/12/12 09:18:22;;;;;;;;;;;25.40;99.90;;;;;;4960383;28;19921;-74
2023/12/12 09:20:49;;;;;;;;;;;25.30;99.90;;;;;;4955213;28;19923;-76
2023/12/12 09:23:16;;;;;;;;;;;25.30;99.90;;;;;;4971929;28;19919;-75
2023/12/12 09:25:43;;;;;;;;;;;25.30;99.90;;;;;;4968207;28;19910;-73
2023/12/12 09:28:09;;;;;;;;;;;25.30;99.90;;;;;;4976353;28;20252;-75
2023/12/12 09:30:36;;;;;;;;;;;25.20;99.90;;;;;;4962167;28;19911;-75
2023/12/12 09:33:03;;;;;;;;;;;25.10;99.90;;;;;;4973173;28;19918;-74
2023/12/12 09:35:29;;;;;;;;;;;25.00;99.90;;;;;;4962250;28;19925;-74
2023/12/12 09:37:56;;;;;;;;;;;25.10;99.90;;;;;;4978989;28;19923;-74
2023/12/12 09:40:22;;;;;;;;;;;25.10;99.90;;;;;;4960978;28;19964;-76
2023/12/12 09:42:49;;;;;;;;;;;24.90;99.90;;;;;;4966589;28;20380;-73
2023/12/12 09:45:16;;;;;;;;;;;25.00;99.90;;;;;;4963379;28;20029;-74
2023/12/12 09:47:44;;;;;;;;;;;25.00;99.90;;;;;;4964091;28;19910;-76
2023/12/12 09:50:11;;;;;;;;;;;25.10;99.90;;;;;;4963288;28;19922;-77
2023/12/12 09:52:39;;;;;;;;;;;25.00;99.90;;;;;;4973654;28;19963;-77
2023/12/12 09:55:06;;;;;;;;;;;25.00;99.90;;;;;;4961007;28;20360;-78
2023/12/12 09:57:33;;;;;;;;;;;24.90;99.90;;;;;;4962828;28;19910;-77
2023/12/12 10:00:00;;;;;;;;;;;24.90;99.90;;;;;;4961731;28;19914;-76
2023/12/12 10:02:31;;;;;;;;;;;25.00;99.90;;;;;;4962436;28;19915;-76
2023/12/12 10:04:59;;;;;;;;;;;25.00;99.90;;;;;;4962555;28;20379;-77
2023/12/12 10:07:27;;;;;;;;;;;24.90;99.90;;;;;;4966975;28;20004;-75
2023/12/12 10:09:53;;;;;;;;;;;24.90;99.90;;;;;;4958023;28;20407;-75
2023/12/12 10:12:20;;;;;;;;;;;24.90;99.90;;;;;;4964073;28;19914;-76
2023/12/12 10:14:50;;;;;;;;;;;24.80;99.90;;;;;;4971014;28;19918;-73
2023/12/12 10:17:16;;;;;;;;;;;24.80;99.90;;;;;;4960207;28;19919;-73
2023/12/12 10:19:43;;;;;;;;;;;24.80;99.90;;;;;;4951629;28;19914;-74
2023/12/12 10:22:10;;;;;;;;;;;24.80;99.90;;;;;;4961244;28;19922;-71
2023/12/12 10:24:37;;;;;;;;;;;24.70;99.90;;;;;;4970239;28;19962;-71
2023/12/12 10:27:04;;;;;;;;;;;24.60;99.90;;;;;;4970953;28;20005;-73
2023/12/12 10:29:31;;;;;;;;;;;24.60;99.90;;;;;;4970988;28;19918;-72
2023/12/12 10:32:02;;;;;;;;;;;24.60;99.90;;;;;;4969502;28;19914;-73
2023/12/12 10:34:30;;;;;;;;;;;24.60;99.90;;;;;;4951443;28;19914;-73
2023/12/12 10:36:59;;;;;;;;;;;24.60;99.90;;;;;;4963257;28;20021;-73
2023/12/12 10:39:29;;;;;;;;;;;24.60;99.90;;;;;;4971168;28;20000;-74
2023/12/12 10:41:56;;;;;;;;;;;24.50;99.90;;;;;;4971374;28;20363;-73
2023/12/12 10:44:32;;;;;;;;;;;24.50;99.90;;;;;;4969394;28;20029;-73
2023/12/12 10:47:03;;;;;;;;;;;24.50;99.90;;;;;;4970651;28;19922;-74
2023/12/12 10:49:33;;;;;;;;;;;24.40;99.90;;;;;;4971051;28;20551;-74
2023/12/12 10:52:05;;;;;;;;;;;24.40;99.90;;;;;;4970997;28;20314;-72
2023/12/12 10:54:36;;;;;;;;;;;24.50;99.90;;;;;;4970898;28;19914;-73
2023/12/12 10:57:04;;;;;;;;;;;24.40;99.90;;;;;;4973464;28;19929;-74
2023/12/12 10:59:31;;;;;;;;;;;24.30;99.90;;;;;;4951698;28;20005;-74
2023/12/12 11:01:58;;;;;;;;;;;24.30;99.90;;;;;;4951974;28;19917;-73
2023/12/12 11:04:25;;;;;;;;;;;24.40;99.90;;;;;;4951736;28;19923;-72
2023/12/12 11:06:52;;;;;;;;;;;24.30;99.90;;;;;;4951715;28;19964;-73
2023/12/12 11:09:21;;;;;;;;;;;24.30;99.90;;;;;;4960759;28;19914;-74
2023/12/12 11:11:49;;;;;;;;;;;24.40;99.90;;;;;;4969963;28;19971;-75
2023/12/12 11:14:17;;;;;;;;;;;24.30;99.90;;;;;;4985455;28;20271;-75
2023/12/12 11:16:44;;;;;;;;;;;24.30;99.90;;;;;;4977079;28;20436;-74
2023/12/12 11:19:17;;;;;;;;;;;24.20;99.90;;;;;;4977089;28;20279;-74
2023/12/12 11:21:45;;;;;;;;;;;24.20;99.90;;;;;;4976993;28;20390;-74
2023/12/12 11:24:12;;;;;;;;;;;24.30;99.90;;;;;;4976660;28;20493;-73
2023/12/12 11:26:41;;;;;;;;;;;24.30;99.90;;;;;;4976668;28;20319;-76
2023/12/12 11:29:08;;;;;;;;;;;24.20;99.90;;;;;;4977061;28;20371;-74
2023/12/12 11:31:35;;;;;;;;;;;24.20;99.90;;;;;;4977192;28;19917;-73
2023/12/12 11:34:08;;;;;;;;;;;24.20;99.90;;;;;;4976316;28;19967;-75
2023/12/12 11:36:51;;;;;;;;;;;24.20;99.90;;;;;;4976686;28;20019;-73
2023/12/12 11:39:26;;;;;;;;;;;24.20;99.90;;;;;;4975922;28;20005;-74
2023/12/12 11:41:53;;;;;;;;;;;24.20;99.90;;;;;;4976619;28;20363;-74
2023/12/12 11:44:21;;;;;;;;;;;24.20;99.90;;;;;;4976216;28;19922;-75
2023/12/12 11:46:48;;;;;;;;;;;24.20;99.90;;;;;;4976926;28;19910;-74
2023/12/12 11:49:18;;;;;;;;;;;24.20;99.90;;;;;;4975944;28;20363;-75
2023/12/12 11:51:46;;;;;;;;;;;24.10;99.90;;;;;;4976869;28;19918;-74
2023/12/12 11:54:24;;;;;;;;;;;24.10;99.90;;;;;;4976556;28;20375;-74
2023/12/12 11:56:58;;;;;;;;;;;24.10;99.90;;;;;;4976835;28;19911;-73
2023/12/12 11:59:26;;;;;;;;;;;24.00;99.90;;;;;;4976690;28;20359;-78
2023/12/12 12:01:53;;;;;;;;;;;24.00;99.90;;;;;;4976889;28;20017;-73
2023/12/12 12:04:21;;;;;;;;;;;24.00;99.90;;;;;;4976679;28;19930;-74
2023/12/12 12:06:49;;;;;;;;;;;24.00;99.90;;;;;;4976469;28;19914;-74
2023/12/12 12:09:16;;;;;;;;;;;23.90;99.90;;;;;;4975877;28;19914;-73
2023/12/12 12:11:47;;;;;;;;;;;23.80;99.90;;;;;;4976459;28;19910;-73
2023/12/12 12:14:17;;;;;;;;;;;23.90;99.90;;;;;;4976714;28;19911;-73
2023/12/12 12:16:44;;;;;;;;;;;23.80;99.90;;;;;;4976258;28;19914;-73
2023/12/12 12:19:29;;;;;;;;;;;23.90;99.90;;;;;;4955803;28;20352;-75
2023/12/12 12:22:24;;;;;;;;;;;23.90;99.90;;;;;;4954087;28;19923;-74
2023/12/12 12:24:51;;;;;;;;;;;23.90;99.90;;;;;;4962163;28;20445;-74
2023/12/12 12:27:17;;;;;;;;;;;23.80;99.90;;;;;;4953938;28;20305;-74
2023/12/12 12:30:06;;;;;;;;;;;23.90;99.90;;;;;;4953977;28;19921;-74
2023/12/12 12:32:32;;;;;;;;;;;23.90;99.90;;;;;;4960030;28;19952;-74
2023/12/12 12:35:09;;;;;;;;;;;23.90;99.90;;;;;;4973144;28;19960;-74
2023/12/12 12:37:36;;;;;;;;;;;23.90;99.90;;;;;;4973098;28;19957;-75
2023/12/12 12:40:04;;;;;;;;;;;23.90;99.90;;;;;;4973363;28;19949;-74
2023/12/12 12:42:32;;;;;;;;;;;23.90;99.90;;;;;;4971649;28;19949;-75
2023/12/12 12:45:00;;;;;;;;;;;23.80;99.90;;;;;;4972779;28;20363;-74
2023/12/12 12:47:26;;;;;;;;;;;23.80;99.90;;;;;;4972808;28;19920;-74
2023/12/12 12:49:53;;;;;;;;;;;23.80;99.90;;;;;;4972808;28;20342;-74
2023/12/12 12:52:20;;;;;;;;;;;23.90;99.90;;;;;;4972086;28;20001;-74
2023/12/12 12:54:47;;;;;;;;;;;23.90;99.90;;;;;;4972888;28;19915;-74
2023/12/12 12:57:14;;;;;;;;;;;23.90;99.90;;;;;;4972833;28;20363;-74
2023/12/12 12:59:41;;;;;;;;;;;23.90;99.90;;;;;;4972892;28;20447;-75
2023/12/12 13:02:08;;;;;;;;;;;23.80;99.90;;;;;;4972768;28;19975;-75
2023/12/12 13:04:43;;;;;;;;;;;23.80;99.90;;;;;;4973218;28;19926;-74
2023/12/12 13:07:10;;;;;;;;;;;23.70;99.90;;;;;;4972672;28;19922;-73
2023/12/12 13:09:37;;;;;;;;;;;23.80;99.90;;;;;;4972815;28;19915;-74
2023/12/12 13:12:04;;;;;;;;;;;23.80;99.90;;;;;;4972937;28;20412;-74
2023/12/12 13:14:33;;;;;;;;;;;23.80;99.90;;;;;;4972431;28;19918;-74
2023/12/12 13:17:00;;;;;;;;;;;23.70;99.90;;;;;;4972502;28;19917;-74
2023/12/12 13:19:26;;;;;;;;;;;23.70;99.90;;;;;;4972401;28;19917;-75
2023/12/12 13:21:53;;;;;;;;;;;23.70;99.90;;;;;;4971837;28;19968;-73
2023/12/12 13:24:22;;;;;;;;;;;23.70;99.90;;;;;;4972288;28;19918;-73
2023/12/12 13:26:53;;;;;;;;;;;23.70;99.90;;;;;;4972072;28;19955;-73
2023/12/12 13:29:19;;;;;;;;;;;23.70;99.90;;;;;;4971759;28;20255;-73
2023/12/12 13:31:49;;;;;;;;;;;23.70;99.90;;;;;;4971629;28;20364;-72
2023/12/12 13:34:16;;;;;;;;;;;23.70;99.90;;;;;;4972142;28;19955;-73
2023/12/12 13:36:43;;;;;;;;;;;23.70;99.90;;;;;;4972132;28;20374;-74
2023/12/12 13:39:12;;;;;;;;;;;23.70;99.90;;;;;;4972153;28;20373;-73
2023/12/12 13:41:45;;;;;;;;;;;23.70;99.90;;;;;;4972108;28;19918;-75
2023/12/12 13:44:11;;;;;;;;;;;23.70;99.90;;;;;;4972120;28;19918;-74
2023/12/12 13:46:38;;;;;;;;;;;23.70;99.90;;;;;;4971119;28;19910;-74
2023/12/12 13:49:05;;;;;;;;;;;23.70;99.90;;;;;;4971710;28;20017;-74
2023/12/12 13:51:32;;;;;;;;;;;23.70;99.90;;;;;;4971659;28;19922;-74
2023/12/12 13:53:58;;;;;;;;;;;23.70;99.90;;;;;;4971851;28;19963;-75
2023/12/12 13:56:26;;;;;;;;;;;23.70;99.90;;;;;;4971565;28;19922;-74
2023/12/12 13:58:52;;;;;;;;;;;23.70;99.90;;;;;;4971794;28;20005;-74
2023/12/12 14:01:19;;;;;;;;;;;23.70;99.90;;;;;;4970828;28;20340;-76
2023/12/12 14:03:45;;;;;;;;;;;23.60;99.90;;;;;;4971751;28;20295;-73
2023/12/12 14:06:12;;;;;;;;;;;23.60;99.90;;;;;;4972154;28;19910;-74
2023/12/12 14:08:39;;;;;;;;;;;23.50;99.90;;;;;;4970772;28;19925;-73
2023/12/12 14:11:06;;;;;;;;;;;23.50;99.90;;;;;;4971584;28;19972;-73
2023/12/12 14:13:33;;;;;;;;;;;23.50;99.90;;;;;;4970590;28;19918;-73
2023/12/12 14:16:00;;;;;;;;;;;23.40;99.90;;;;;;4971635;28;19921;-73
2023/12/12 14:18:28;;;;;;;;;;;23.40;99.90;;;;;;4971274;28;19921;-73